createdAt,value
2022-08-21T00:00:20.421Z,18.16
2022-08-21T00:03:02.238Z,18.12
2022-08-21T00:05:38.652Z,18.07
2022-08-21T00:08:06.156Z,17.98
2022-08-21T00:10:33.717Z,17.92
2022-08-21T00:13:04.766Z,17.94
2022-08-21T00:15:34.628Z,18.02
2022-08-21T00:18:01.805Z,18.00
2022-08-21T00:20:29.202Z,18.00
2022-08-21T00:22:56.129Z,17.74
2022-08-21T00:25:26.311Z,17.71
2022-08-21T00:27:54.955Z,17.85
2022-08-21T00:30:24.569Z,17.72
2022-08-21T00:32:53.654Z,17.83
2022-08-21T00:35:26.286Z,17.83
2022-08-21T00:37:53.119Z,17.81
2022-08-21T00:40:29.323Z,17.85
2022-08-21T00:42:56.471Z,17.84
2022-08-21T00:45:24.682Z,17.72
2022-08-21T00:47:53.383Z,17.71
2022-08-21T00:50:21.578Z,17.53
2022-08-21T00:52:51.911Z,17.57
2022-08-21T00:55:21.820Z,17.64
2022-08-21T00:57:53.420Z,17.54
2022-08-21T01:00:32.581Z,17.47
2022-08-21T01:03:02.386Z,17.49
2022-08-21T01:05:34.594Z,17.33
2022-08-21T01:08:01.674Z,17.36
2022-08-21T01:10:29.034Z,17.40
2022-08-21T01:12:58.263Z,17.30
2022-08-21T01:15:32.297Z,17.27
2022-08-21T01:18:00.463Z,17.42
2022-08-21T01:20:32.474Z,17.32
2022-08-21T01:23:01.467Z,17.34
2022-08-21T01:25:28.331Z,17.29
2022-08-21T01:27:55.747Z,17.37
2022-08-21T01:30:28.004Z,17.20
2022-08-21T01:32:56.348Z,17.08
2022-08-21T01:35:23.856Z,17.08
2022-08-21T01:37:50.709Z,16.92
2022-08-21T01:40:20.146Z,17.11
2022-08-21T01:42:47.202Z,17.11
2022-08-21T01:45:16.577Z,17.12
2022-08-21T01:47:45.418Z,16.95
2022-08-21T01:50:19.132Z,17.06
2022-08-21T01:52:46.048Z,16.98
2022-08-21T01:55:18.867Z,16.97
2022-08-21T01:57:47.123Z,16.97
2022-08-21T02:00:17.879Z,16.98
2022-08-21T02:02:44.721Z,17.00
2022-08-21T02:05:13.443Z,17.03
2022-08-21T02:07:45.549Z,17.11
2022-08-21T02:10:18.819Z,16.94
2022-08-21T02:12:46.579Z,16.92
2022-08-21T02:15:13.485Z,16.95
2022-08-21T02:17:48.054Z,16.80
2022-08-21T02:20:38.475Z,16.84
2022-08-21T02:23:07.853Z,16.87
2022-08-21T02:25:35.407Z,16.73
2022-08-21T02:28:07.769Z,16.80
2022-08-21T02:30:40.609Z,16.89
2022-08-21T02:33:08.932Z,16.85
2022-08-21T02:35:36.021Z,16.83
2022-08-21T02:38:12.937Z,16.64
2022-08-21T02:40:43.784Z,16.77
2022-08-21T02:43:16.310Z,16.77
2022-08-21T02:45:44.983Z,16.71
2022-08-21T02:48:17.820Z,16.74
2022-08-21T02:50:49.950Z,16.71
2022-08-21T02:53:18.116Z,16.74
2022-08-21T02:55:48.004Z,16.72
2022-08-21T02:58:19.079Z,16.64
2022-08-21T03:00:46.318Z,16.57
2022-08-21T03:03:15.413Z,16.75
2022-08-21T03:05:44.271Z,16.48
2022-08-21T03:08:13.905Z,16.47
2022-08-21T03:10:45.558Z,16.53
2022-08-21T03:13:13.699Z,16.47
2022-08-21T03:15:41.138Z,16.45
2022-08-21T03:18:10.573Z,16.53
2022-08-21T03:20:39.999Z,16.47
2022-08-21T03:23:07.718Z,16.49
2022-08-21T03:25:41.283Z,16.49
2022-08-21T03:28:14.007Z,16.53
2022-08-21T03:30:48.120Z,16.48
2022-08-21T03:33:15.771Z,16.46
2022-08-21T03:35:45.731Z,16.47
2022-08-21T03:38:16.254Z,16.49
2022-08-21T03:40:44.610Z,16.33
2022-08-21T03:43:11.868Z,16.39
2022-08-21T03:45:40.201Z,16.35
2022-08-21T03:48:10.079Z,16.32
2022-08-21T03:50:41.640Z,16.34
2022-08-21T03:53:17.527Z,16.37
2022-08-21T03:55:50.172Z,16.33
2022-08-21T03:58:18.976Z,16.24
2022-08-21T04:00:49.099Z,16.25
2022-08-21T04:03:16.713Z,16.29
2022-08-21T04:05:43.762Z,16.22
2022-08-21T04:08:10.605Z,16.10
2022-08-21T04:10:40.289Z,16.16
2022-08-21T04:13:08.551Z,16.28
2022-08-21T04:15:35.967Z,16.12
2022-08-21T04:18:03.521Z,15.90
2022-08-21T04:20:30.625Z,16.03
2022-08-21T04:22:57.736Z,16.01
2022-08-21T04:25:26.548Z,15.90
2022-08-21T04:27:54.166Z,15.99
2022-08-21T04:30:28.228Z,16.07
2022-08-21T04:32:58.162Z,16.02
2022-08-21T04:35:27.981Z,16.08
2022-08-21T04:37:54.827Z,15.96
2022-08-21T04:40:28.269Z,15.96
2022-08-21T04:43:01.608Z,15.90
2022-08-21T04:45:33.362Z,15.99
2022-08-21T04:48:02.602Z,15.99
2022-08-21T04:50:37.309Z,15.99
2022-08-21T04:53:08.733Z,15.95
2022-08-21T04:55:36.266Z,15.99
2022-08-21T04:58:03.284Z,16.07
2022-08-21T05:00:30.760Z,15.92
2022-08-21T05:03:00.431Z,15.97
2022-08-21T05:05:30.215Z,16.01
2022-08-21T05:08:00.757Z,16.00
2022-08-21T05:10:28.305Z,16.02
2022-08-21T05:12:56.018Z,15.97
2022-08-21T05:15:22.901Z,16.02
2022-08-21T05:17:53.557Z,16.02
2022-08-21T05:20:27.854Z,16.03
2022-08-21T05:22:54.715Z,16.04
2022-08-21T05:25:23.777Z,16.02
2022-08-21T05:27:52.154Z,16.04
2022-08-21T05:30:20.851Z,16.02
2022-08-21T05:32:48.840Z,16.06
2022-08-21T05:35:15.910Z,16.14
2022-08-21T05:37:42.785Z,16.13
2022-08-21T05:40:22.206Z,16.11
2022-08-21T05:42:55.655Z,16.16
2022-08-21T05:45:42.202Z,16.15
2022-08-21T05:48:13.667Z,16.22
2022-08-21T05:50:41.669Z,16.28
2022-08-21T05:53:10.368Z,16.29
2022-08-21T05:55:42.698Z,16.28
2022-08-21T05:58:12.917Z,16.26
2022-08-21T06:00:40.379Z,16.36
2022-08-21T06:03:13.728Z,16.26
2022-08-21T06:05:40.566Z,16.36
2022-08-21T06:08:07.383Z,16.48
2022-08-21T06:10:34.311Z,16.42
2022-08-21T06:13:01.532Z,16.57
2022-08-21T06:15:28.537Z,16.56
2022-08-21T06:17:55.845Z,16.69
2022-08-21T06:20:23.725Z,16.75
2022-08-21T06:22:50.655Z,16.72
2022-08-21T06:25:17.603Z,16.79
2022-08-21T06:27:44.623Z,16.75
2022-08-21T06:30:12.234Z,16.75
2022-08-21T06:32:39.380Z,16.84
2022-08-21T06:35:07.314Z,16.99
2022-08-21T06:37:34.568Z,16.88
2022-08-21T06:40:01.798Z,16.88
2022-08-21T06:42:29.185Z,17.02
2022-08-21T06:44:58.486Z,16.91
2022-08-21T06:47:25.360Z,17.05
2022-08-21T06:49:52.271Z,16.88
2022-08-21T06:52:19.111Z,17.02
2022-08-21T06:54:46.334Z,17.18
2022-08-21T06:57:13.163Z,17.17
2022-08-21T06:59:40.077Z,17.23
2022-08-21T07:02:07.042Z,17.30
2022-08-21T07:04:34.188Z,17.35
2022-08-21T07:07:01.047Z,17.38
2022-08-21T07:09:28.090Z,17.42
2022-08-21T07:11:56.437Z,17.46
2022-08-21T07:14:23.451Z,17.40
2022-08-21T07:16:51.686Z,17.54
2022-08-21T07:19:19.126Z,17.52
2022-08-21T07:21:46.161Z,17.50
2022-08-21T07:24:13.288Z,17.63
2022-08-21T07:26:41.097Z,17.66
2022-08-21T07:29:07.995Z,17.56
2022-08-21T07:31:34.849Z,17.65
2022-08-21T07:34:01.780Z,17.82
2022-08-21T07:36:28.735Z,17.87
2022-08-21T07:38:55.664Z,17.93
2022-08-21T07:41:27.249Z,17.99
2022-08-21T07:43:54.083Z,18.04
2022-08-21T07:46:21.756Z,18.09
2022-08-21T07:48:48.702Z,18.12
2022-08-21T07:51:17.601Z,18.15
2022-08-21T07:53:53.784Z,18.15
2022-08-21T07:56:21.088Z,18.09
2022-08-21T07:58:48.626Z,18.26
2022-08-21T08:01:15.889Z,18.25
2022-08-21T08:03:43.042Z,18.35
2022-08-21T08:06:13.173Z,18.36
2022-08-21T08:08:41.832Z,18.41
2022-08-21T08:11:16.063Z,18.44
2022-08-21T08:13:49.283Z,18.40
2022-08-21T08:16:16.787Z,18.49
2022-08-21T08:18:43.755Z,18.67
2022-08-21T08:21:12.087Z,18.69
2022-08-21T08:23:39.734Z,18.68
2022-08-21T08:26:06.832Z,18.63
2022-08-21T08:28:34.600Z,18.81
2022-08-21T08:31:01.907Z,18.88
2022-08-21T08:33:29.083Z,18.81
2022-08-21T08:35:56.474Z,18.94
2022-08-21T08:38:25.693Z,19.12
2022-08-21T08:41:00.948Z,19.13
2022-08-21T08:43:30.851Z,19.04
2022-08-21T08:46:02.329Z,19.09
2022-08-21T08:49:05.774Z,19.19
2022-08-21T08:51:58.754Z,19.21
2022-08-21T08:54:50.216Z,19.21
2022-08-21T08:57:23.799Z,19.32
2022-08-21T08:59:59.986Z,19.38
2022-08-21T09:02:28.677Z,19.31
2022-08-21T09:04:56.912Z,19.32
2022-08-21T09:07:47.399Z,19.54
2022-08-21T09:10:24.360Z,19.62
2022-08-21T09:13:13.058Z,19.76
2022-08-21T09:16:24.025Z,19.78
2022-08-21T09:19:49.032Z,19.92
2022-08-21T09:22:48.911Z,20.22
2022-08-21T09:25:27.142Z,20.41
2022-08-21T09:27:55.107Z,20.43
2022-08-21T09:30:32.048Z,20.51
2022-08-21T09:32:59.308Z,20.48
2022-08-21T09:35:27.175Z,20.58
2022-08-21T09:38:03.735Z,20.57
2022-08-21T09:40:40.852Z,20.63
2022-08-21T09:43:13.371Z,20.83
2022-08-21T09:45:43.008Z,20.77
2022-08-21T09:48:13.707Z,20.73
2022-08-21T09:50:42.919Z,20.81
2022-08-21T09:53:24.399Z,21.06
2022-08-21T09:56:18.191Z,21.00
2022-08-21T09:58:52.003Z,21.17
2022-08-21T10:01:25.686Z,21.35
2022-08-21T10:04:34.282Z,21.61
2022-08-21T10:07:14.935Z,21.64
2022-08-21T10:09:42.888Z,21.59
2022-08-21T10:12:24.186Z,21.72
2022-08-21T10:15:14.649Z,21.99
2022-08-21T10:18:02.610Z,22.24
2022-08-21T10:20:51.876Z,22.36
2022-08-21T10:23:58.425Z,22.38
2022-08-21T10:27:07.056Z,22.45
2022-08-21T10:29:51.664Z,22.80
2022-08-21T10:32:39.960Z,22.79
2022-08-21T10:35:31.361Z,22.68
2022-08-21T10:38:48.891Z,22.68
2022-08-21T10:41:41.589Z,22.98
2022-08-21T10:44:42.014Z,22.85
2022-08-21T10:47:42.912Z,22.86
2022-08-21T10:50:41.410Z,23.18
2022-08-21T10:53:37.836Z,22.88
2022-08-21T10:56:23.771Z,23.03
2022-08-21T10:59:35.432Z,23.14
2022-08-21T11:02:20.415Z,23.02
2022-08-21T11:05:15.016Z,23.32
2022-08-21T11:08:19.854Z,23.45
2022-08-21T11:11:08.681Z,23.39
2022-08-21T11:13:49.051Z,23.52
2022-08-21T11:16:32.456Z,23.60
2022-08-21T11:19:32.501Z,24.04
2022-08-21T11:22:28.046Z,24.27
2022-08-21T11:25:04.158Z,24.67
2022-08-21T11:27:44.845Z,24.53
2022-08-21T11:30:13.717Z,24.67
2022-08-21T11:33:31.051Z,25.04
2022-08-21T11:36:13.783Z,25.77
2022-08-21T11:38:44.422Z,26.62
2022-08-21T11:41:24.558Z,27.23
2022-08-21T11:44:16.081Z,27.90
2022-08-21T11:47:02.314Z,28.38
2022-08-21T11:50:03.051Z,28.65
2022-08-21T11:52:40.811Z,28.43
2022-08-21T11:55:25.285Z,27.87
2022-08-21T11:58:08.477Z,27.75
2022-08-21T12:00:59.551Z,27.97
2022-08-21T12:03:35.167Z,27.93
2022-08-21T12:06:24.207Z,27.86
2022-08-21T12:09:05.125Z,27.53
2022-08-21T12:11:32.037Z,27.07
2022-08-21T12:14:14.127Z,26.88
2022-08-21T12:16:48.709Z,26.60
2022-08-21T12:19:32.015Z,26.37
2022-08-21T12:21:58.694Z,26.40
2022-08-21T12:24:28.131Z,26.26
2022-08-21T12:26:56.790Z,26.21
2022-08-21T12:29:34.107Z,26.23
2022-08-21T12:32:00.810Z,25.97
2022-08-21T12:34:50.620Z,25.71
2022-08-21T12:37:42.163Z,25.62
2022-08-21T12:40:24.190Z,25.95
2022-08-21T12:42:58.964Z,25.77
2022-08-21T12:45:37.755Z,25.89
2022-08-21T12:48:24.986Z,25.84
2022-08-21T12:50:57.629Z,25.65
2022-08-21T12:53:34.603Z,25.61
2022-08-21T12:56:10.965Z,25.62
2022-08-21T12:58:52.531Z,25.37
2022-08-21T13:01:31.659Z,25.49
2022-08-21T13:04:21.870Z,25.37
2022-08-21T13:06:53.303Z,25.30
2022-08-21T13:09:27.452Z,25.35
2022-08-21T13:11:55.312Z,25.53
2022-08-21T13:14:38.354Z,26.10
2022-08-21T13:17:13.768Z,26.09
2022-08-21T13:20:07.122Z,26.28
2022-08-21T13:22:41.815Z,26.51
2022-08-21T13:25:13.389Z,26.67
2022-08-21T13:27:40.973Z,26.63
2022-08-21T13:30:19.510Z,26.26
2022-08-21T13:32:51.774Z,26.17
2022-08-21T13:35:24.667Z,26.32
2022-08-21T13:37:53.026Z,26.06
2022-08-21T13:40:48.148Z,26.50
2022-08-21T13:43:21.498Z,26.40
2022-08-21T13:45:53.537Z,26.36
2022-08-21T13:48:23.338Z,26.14
2022-08-21T13:50:50.609Z,26.14
2022-08-21T13:53:30.321Z,26.17
2022-08-21T13:56:00.745Z,26.06
2022-08-21T13:58:44.558Z,26.16
2022-08-21T14:01:50.087Z,26.17
2022-08-21T14:04:27.887Z,26.16
2022-08-21T14:06:55.269Z,26.10
2022-08-21T14:09:32.302Z,26.28
2022-08-21T14:12:05.834Z,26.22
2022-08-21T14:14:36.250Z,26.51
2022-08-21T14:17:25.188Z,26.84
2022-08-21T14:19:53.558Z,26.79
2022-08-21T14:22:40.336Z,26.84
2022-08-21T14:25:13.863Z,27.01
2022-08-21T14:27:50.037Z,26.78
2022-08-21T14:30:36.262Z,26.82
2022-08-21T14:33:05.716Z,26.73
2022-08-21T14:35:32.553Z,27.08
2022-08-21T14:37:59.407Z,27.08
2022-08-21T14:40:27.513Z,27.14
2022-08-21T14:42:55.887Z,26.86
2022-08-21T14:45:31.748Z,26.94
2022-08-21T14:48:00.071Z,26.81
2022-08-21T14:50:28.319Z,26.80
2022-08-21T14:52:56.238Z,26.96
2022-08-21T14:55:23.154Z,26.72
2022-08-21T14:57:52.809Z,26.65
2022-08-21T15:00:35.502Z,26.56
2022-08-21T15:03:03.678Z,26.54
2022-08-21T15:05:33.690Z,26.53
2022-08-21T15:08:01.411Z,26.48
2022-08-21T15:10:29.040Z,26.45
2022-08-21T15:12:56.437Z,26.46
2022-08-21T15:15:23.426Z,26.29
2022-08-21T15:17:50.246Z,26.31
2022-08-21T15:20:17.155Z,26.27
2022-08-21T15:22:47.560Z,26.30
2022-08-21T15:25:14.865Z,26.35
2022-08-21T15:27:41.882Z,26.48
2022-08-21T15:30:09.609Z,26.48
2022-08-21T15:32:36.421Z,26.39
2022-08-21T15:35:07.140Z,26.45
2022-08-21T15:37:34.172Z,26.61
2022-08-21T15:40:01.088Z,26.59
2022-08-21T15:42:28.687Z,26.61
2022-08-21T15:44:57.377Z,26.72
2022-08-21T15:47:30.082Z,26.60
2022-08-21T15:49:57.050Z,26.86
2022-08-21T15:52:24.346Z,26.73
2022-08-21T15:54:51.962Z,26.63
2022-08-21T15:57:23.471Z,26.55
2022-08-21T16:00:10.094Z,26.53
2022-08-21T16:02:37.479Z,26.44
2022-08-21T16:05:05.125Z,26.54
2022-08-21T16:07:32.043Z,26.48
2022-08-21T16:09:58.893Z,26.42
2022-08-21T16:12:34.325Z,26.50
2022-08-21T16:15:05.132Z,26.52
2022-08-21T16:17:35.693Z,26.60
2022-08-21T16:20:09.699Z,26.62
2022-08-21T16:22:44.405Z,26.58
2022-08-21T16:25:13.426Z,26.60
2022-08-21T16:27:42.790Z,26.47
2022-08-21T16:30:12.699Z,26.61
2022-08-21T16:32:39.543Z,26.52
2022-08-21T16:35:06.501Z,26.56
2022-08-21T16:37:33.478Z,26.49
2022-08-21T16:40:00.466Z,26.62
2022-08-21T16:42:27.500Z,26.66
2022-08-21T16:44:55.445Z,26.57
2022-08-21T16:47:26.861Z,26.60
2022-08-21T16:49:54.366Z,26.69
2022-08-21T16:52:21.261Z,26.68
2022-08-21T16:54:48.125Z,26.52
2022-08-21T16:57:15.025Z,26.69
2022-08-21T16:59:42.251Z,26.64
2022-08-21T17:02:30.436Z,26.66
2022-08-21T17:04:57.549Z,26.44
2022-08-21T17:07:24.869Z,26.56
2022-08-21T17:09:51.809Z,26.48
2022-08-21T17:12:19.279Z,26.64
2022-08-21T17:14:47.379Z,26.54
2022-08-21T17:17:14.935Z,26.54
2022-08-21T17:19:42.402Z,26.64
2022-08-21T17:22:09.998Z,26.60
2022-08-21T17:24:37.733Z,26.50
2022-08-21T17:27:05.589Z,26.52
2022-08-21T17:29:37.779Z,26.47
2022-08-21T17:32:09.866Z,26.36
2022-08-21T17:34:38.015Z,26.31
2022-08-21T17:37:06.885Z,26.31
2022-08-21T17:39:33.840Z,26.27
2022-08-21T17:42:07.081Z,26.18
2022-08-21T17:44:37.750Z,26.20
2022-08-21T17:47:05.340Z,26.11
2022-08-21T17:49:32.286Z,25.93
2022-08-21T17:52:00.163Z,25.75
2022-08-21T17:54:28.160Z,25.72
2022-08-21T17:56:56.207Z,25.58
2022-08-21T17:59:24.533Z,25.39
2022-08-21T18:01:51.458Z,25.39
2022-08-21T18:04:18.332Z,25.25
2022-08-21T18:06:45.882Z,25.19
2022-08-21T18:09:13.214Z,24.97
2022-08-21T18:11:42.179Z,24.97
2022-08-21T18:14:16.989Z,24.83
2022-08-21T18:16:45.428Z,24.70
2022-08-21T18:19:15.886Z,24.74
2022-08-21T18:21:43.113Z,24.52
2022-08-21T18:24:09.925Z,24.58
2022-08-21T18:26:39.992Z,24.48
2022-08-21T18:29:11.513Z,24.51
2022-08-21T18:31:40.438Z,24.40
2022-08-21T18:34:24.677Z,24.32
2022-08-21T18:36:52.989Z,24.29
2022-08-21T18:39:37.794Z,24.12
2022-08-21T18:42:11.405Z,24.06
2022-08-21T18:44:40.830Z,23.86
2022-08-21T18:47:14.491Z,23.88
2022-08-21T18:55:17.736Z,23.61
2022-08-21T18:57:46.549Z,23.45
2022-08-21T19:00:23.367Z,23.48
2022-08-21T19:02:51.590Z,23.36
2022-08-21T19:05:20.626Z,23.25
2022-08-21T19:07:51.413Z,23.11
2022-08-21T19:10:24.374Z,23.11
2022-08-21T19:12:51.936Z,23.03
2022-08-21T19:15:23.209Z,22.92
2022-08-21T19:17:51.457Z,22.85
2022-08-21T19:20:34.436Z,22.67
2022-08-21T19:23:04.432Z,22.59
2022-08-21T19:25:34.365Z,22.58
2022-08-21T19:28:10.764Z,22.52
2022-08-21T19:30:42.078Z,22.46
2022-08-21T19:33:23.729Z,22.25
2022-08-21T19:38:38.991Z,22.25
2022-08-21T19:41:10.436Z,22.23
2022-08-21T19:43:50.296Z,22.07
2022-08-21T19:46:25.824Z,22.07
2022-08-21T19:48:55.104Z,22.00
2022-08-21T19:51:23.245Z,21.96
2022-08-21T19:53:56.944Z,21.76
2022-08-21T19:56:27.667Z,21.82
2022-08-21T19:58:55.659Z,21.75
2022-08-21T20:01:25.902Z,21.63
2022-08-21T20:03:54.784Z,21.47
2022-08-21T20:06:25.853Z,21.57
2022-08-21T20:08:55.137Z,21.50
2022-08-21T20:11:31.528Z,21.48
2022-08-21T20:14:23.835Z,21.39
2022-08-21T20:16:52.715Z,21.36
2022-08-21T20:19:21.776Z,21.33
2022-08-21T20:21:49.083Z,21.20
2022-08-21T20:24:16.454Z,21.25
2022-08-21T20:26:49.224Z,21.10
2022-08-21T20:32:07.786Z,21.07
2022-08-21T20:34:34.871Z,20.93
2022-08-21T20:37:02.055Z,20.97
2022-08-21T20:39:32.267Z,20.86
2022-08-21T20:41:59.190Z,20.88
2022-08-21T20:44:32.601Z,20.81
2022-08-21T20:47:01.416Z,20.63
2022-08-21T20:49:43.204Z,20.63
2022-08-21T20:52:10.873Z,20.72
2022-08-21T20:55:06.763Z,20.52
2022-08-21T20:58:01.320Z,20.41
2022-08-21T21:00:34.564Z,20.44
2022-08-21T21:03:31.538Z,20.45
2022-08-21T21:06:05.056Z,20.47
2022-08-21T21:08:39.303Z,20.44
2022-08-21T21:11:26.874Z,20.44
2022-08-21T21:14:05.865Z,20.40
2022-08-21T21:16:50.755Z,20.36
2022-08-21T21:19:36.946Z,20.29
2022-08-21T21:22:42.185Z,20.22
2022-08-21T21:25:19.398Z,20.14
2022-08-21T21:27:57.272Z,20.12
2022-08-21T21:30:32.621Z,20.12
2022-08-21T21:32:59.664Z,20.03
2022-08-21T21:35:36.511Z,19.95
2022-08-21T21:38:36.199Z,19.82
2022-08-21T21:41:31.459Z,19.87
2022-08-21T21:44:26.681Z,19.72
2022-08-21T21:47:56.326Z,19.68
2022-08-21T21:50:29.109Z,19.63
2022-08-21T21:53:39.709Z,19.53
2022-08-21T21:56:36.504Z,19.66
2022-08-21T21:59:23.135Z,19.66
2022-08-21T22:02:18.498Z,19.48
2022-08-21T22:05:13.863Z,19.63
2022-08-21T22:07:49.235Z,19.60
2022-08-21T22:10:43.281Z,19.60
2022-08-21T22:16:20.901Z,19.56
2022-08-21T22:18:57.498Z,19.53
2022-08-21T22:21:40.501Z,19.45
2022-08-21T22:24:24.258Z,19.33
2022-08-21T22:26:58.242Z,19.29
2022-08-21T22:30:02.422Z,19.15
2022-08-21T22:32:37.360Z,19.34
2022-08-21T22:35:19.095Z,19.25
2022-08-21T22:37:51.677Z,19.02
2022-08-21T22:40:32.095Z,19.16
2022-08-21T22:43:09.798Z,19.11
2022-08-21T22:46:06.836Z,19.17
2022-08-21T22:48:40.216Z,19.08
2022-08-21T22:51:44.535Z,19.04
2022-08-21T22:54:22.850Z,19.02
2022-08-21T22:57:02.412Z,18.98
2022-08-21T23:00:11.822Z,19.03
2022-08-21T23:05:39.106Z,18.89
2022-08-21T23:08:25.426Z,18.94
2022-08-21T23:11:06.412Z,18.94
2022-08-21T23:13:46.651Z,18.71
2022-08-21T23:16:38.958Z,18.78
2022-08-21T23:19:55.454Z,18.79
2022-08-21T23:23:04.204Z,18.71
2022-08-21T23:25:38.290Z,18.67
2022-08-21T23:28:27.001Z,18.60
2022-08-21T23:31:36.646Z,18.43
2022-08-21T23:34:57.429Z,18.56
2022-08-21T23:37:51.757Z,18.45
2022-08-21T23:40:51.609Z,18.51
2022-08-21T23:43:52.011Z,18.49
2022-08-21T23:46:52.774Z,18.48
2022-08-21T23:49:53.976Z,18.34
2022-08-21T23:52:38.995Z,18.30
2022-08-21T23:55:37.587Z,18.38
2022-08-21T23:58:51.175Z,18.42
